createdAt,value
2023-02-11T00:00:41.913Z,102458.28
2023-02-11T00:03:08.903Z,102453.81
2023-02-11T00:05:35.406Z,102463.13
2023-02-11T00:08:01.802Z,102463.94
2023-02-11T00:10:28.254Z,102453.41
2023-02-11T00:12:54.694Z,102446.16
2023-02-11T00:15:21.450Z,102438.06
2023-02-11T00:17:47.876Z,102451.38
2023-02-11T00:20:14.663Z,102436.81
2023-02-11T00:22:41.118Z,102443.28
2023-02-11T00:25:07.708Z,102441.66
2023-02-11T00:27:34.527Z,102445.72
2023-02-11T00:30:02.170Z,102455.44
2023-02-11T00:32:30.432Z,102461.09
2023-02-11T00:34:56.891Z,102454.63
2023-02-11T00:37:23.327Z,102445.31
2023-02-11T00:39:50.143Z,102453.03
2023-02-11T00:42:16.799Z,102441.69
2023-02-11T00:44:44.842Z,102457.06
2023-02-11T00:47:11.311Z,102452.19
2023-02-11T00:49:40.193Z,102448.13
2023-02-11T00:52:06.899Z,102442.47
2023-02-11T00:54:34.351Z,102434.78
2023-02-11T00:57:00.805Z,102437.19
2023-02-11T00:59:27.370Z,102445.69
2023-02-11T01:01:53.977Z,102439.22
2023-02-11T01:04:20.480Z,102412.53
2023-02-11T01:06:47.108Z,102421.81
2023-02-11T01:09:13.535Z,102413.75
2023-02-11T01:11:40.084Z,102429.91
2023-02-11T01:14:06.491Z,102393.91
2023-02-11T01:16:32.986Z,102377.34
2023-02-11T01:18:59.579Z,102405.59
2023-02-11T01:21:26.177Z,102411.66
2023-02-11T01:23:52.984Z,102392.66
2023-02-11T01:26:19.700Z,102386.56
2023-02-11T01:28:46.491Z,102384.97
2023-02-11T01:31:13.054Z,102390.63
2023-02-11T01:33:40.301Z,102373.25
2023-02-11T01:36:08.015Z,102361.50
2023-02-11T01:38:34.966Z,102376.88
2023-02-11T01:41:05.140Z,102375.66
2023-02-11T01:43:41.409Z,102352.16
2023-02-11T01:46:31.220Z,102355.81
2023-02-11T01:49:06.770Z,102364.31
2023-02-11T01:51:40.100Z,102352.19
2023-02-11T01:54:27.663Z,102346.50
2023-02-11T01:57:15.194Z,102352.97
2023-02-11T01:59:57.731Z,102346.13
2023-02-11T02:02:30.649Z,102362.28
2023-02-11T02:05:14.751Z,102356.22
2023-02-11T02:07:58.908Z,102365.94
2023-02-11T02:10:28.404Z,102367.53
2023-02-11T02:12:55.173Z,102363.88
2023-02-11T02:15:38.413Z,102354.59
2023-02-11T02:18:13.900Z,102357.00
2023-02-11T02:21:11.217Z,102350.94
2023-02-11T02:23:54.180Z,102358.63
2023-02-11T02:26:37.618Z,102351.75
2023-02-11T02:29:31.070Z,102347.69
2023-02-11T02:32:31.339Z,102354.16
2023-02-11T02:35:06.915Z,102356.59
2023-02-11T02:37:54.976Z,102342.03
2023-02-11T02:40:28.902Z,102358.63
2023-02-11T02:42:56.721Z,102344.47
2023-02-11T02:45:23.156Z,102338.78
2023-02-11T02:47:49.568Z,102344.44
2023-02-11T02:50:20.780Z,102345.22
2023-02-11T02:53:04.573Z,102332.72
2023-02-11T02:56:00.718Z,102322.97
2023-02-11T02:58:30.051Z,102332.28
2023-02-11T03:01:34.229Z,102324.97
2023-02-11T03:04:25.142Z,102335.53
2023-02-11T03:06:57.682Z,102312.44
2023-02-11T03:09:34.852Z,102303.97
2023-02-11T03:12:03.595Z,102320.53
2023-02-11T03:14:32.088Z,102308.78
2023-02-11T03:17:01.678Z,102308.78
2023-02-11T03:19:37.590Z,102318.06
2023-02-11T03:22:08.045Z,102319.69
2023-02-11T03:24:38.522Z,102316.88
2023-02-11T03:27:20.265Z,102308.78
2023-02-11T03:30:01.196Z,102306.31
2023-02-11T03:32:36.916Z,102295.44
2023-02-11T03:35:14.165Z,102290.16
2023-02-11T03:37:49.352Z,102315.22
2023-02-11T03:40:21.325Z,102309.94
2023-02-11T03:42:54.589Z,102308.34
2023-02-11T03:45:23.887Z,102304.28
2023-02-11T03:48:29.778Z,102290.13
2023-02-11T03:50:59.465Z,102299.84
2023-02-11T03:53:25.881Z,102280.44
2023-02-11T03:55:54.754Z,102283.59
2023-02-11T03:58:21.245Z,102290.88
2023-02-11T04:00:48.242Z,102282.41
2023-02-11T04:03:14.732Z,102298.16
2023-02-11T04:05:41.215Z,102292.88
2023-02-11T04:08:07.979Z,102290.09
2023-02-11T04:10:34.446Z,102288.03
2023-02-11T04:13:01.165Z,102295.69
2023-02-11T04:15:27.683Z,102289.63
2023-02-11T04:17:54.122Z,102269.00
2023-02-11T04:20:20.718Z,102271.84
2023-02-11T04:22:47.171Z,102285.97
2023-02-11T04:25:13.869Z,102285.97
2023-02-11T04:27:40.346Z,102294.44
2023-02-11T04:30:07.949Z,102292.44
2023-02-11T04:32:34.365Z,102295.25
2023-02-11T04:35:00.869Z,102302.53
2023-02-11T04:37:27.368Z,102296.09
2023-02-11T04:39:53.808Z,102303.75
2023-02-11T04:42:20.244Z,102299.31
2023-02-11T04:44:46.865Z,102306.97
2023-02-11T04:47:15.347Z,102305.75
2023-02-11T04:49:42.279Z,102303.72
2023-02-11T04:52:09.138Z,102296.84
2023-02-11T04:54:35.651Z,102293.19
2023-02-11T04:57:02.220Z,102302.09
2023-02-11T04:59:29.103Z,102290.75
2023-02-11T05:01:55.837Z,102287.09
2023-02-11T05:04:22.402Z,102293.97
2023-02-11T05:06:48.853Z,102270.50
2023-02-11T05:09:15.656Z,102286.63
2023-02-11T05:11:42.745Z,102291.09
2023-02-11T05:14:09.176Z,102277.75
2023-02-11T05:16:35.706Z,102273.72
2023-02-11T05:19:02.225Z,102284.19
2023-02-11T05:21:28.674Z,102276.13
2023-02-11T05:23:55.128Z,102260.75
2023-02-11T05:26:21.540Z,102277.75
2023-02-11T05:28:48.186Z,102279.72
2023-02-11T05:31:15.053Z,102274.88
2023-02-11T05:33:41.980Z,102277.28
2023-02-11T05:36:11.249Z,102283.75
2023-02-11T05:38:38.445Z,102276.03
2023-02-11T05:41:06.213Z,102277.28
2023-02-11T05:43:32.802Z,102261.91
2023-02-11T05:45:59.285Z,102268.31
2023-02-11T05:48:25.777Z,102264.69
2023-02-11T05:50:52.420Z,102265.91
2023-02-11T05:53:18.798Z,102272.38
2023-02-11T05:55:46.072Z,102258.59
2023-02-11T05:58:12.480Z,102263.81
2023-02-11T06:00:39.260Z,102253.69
2023-02-11T06:03:05.840Z,102250.47
2023-02-11T06:05:33.111Z,102262.22
2023-02-11T06:07:59.837Z,102258.94
2023-02-11T06:10:26.671Z,102253.72
2023-02-11T06:12:53.083Z,102252.41
2023-02-11T06:15:19.631Z,102246.78
2023-02-11T06:17:46.340Z,102237.00
2023-02-11T06:20:12.792Z,102236.19
2023-02-11T06:22:39.266Z,102237.84
2023-02-11T06:25:06.330Z,102233.78
2023-02-11T06:27:32.820Z,102248.28
2023-02-11T06:29:59.238Z,102252.34
2023-02-11T06:32:45.253Z,102241.41
2023-02-11T06:35:13.863Z,102251.19
2023-02-11T06:37:41.128Z,102241.81
2023-02-11T06:40:08.489Z,102230.84
2023-02-11T06:42:36.313Z,102239.78
2023-02-11T06:45:05.895Z,102246.19
2023-02-11T06:47:32.340Z,102247.03
2023-02-11T06:49:58.724Z,102245.81
2023-02-11T06:52:25.136Z,102245.06
2023-02-11T06:54:51.581Z,102259.19
2023-02-11T06:57:18.019Z,102247.44
2023-02-11T06:59:44.530Z,102257.13
2023-02-11T07:02:11.035Z,102257.19
2023-02-11T07:04:37.967Z,102253.88
2023-02-11T07:07:04.372Z,102244.16
2023-02-11T07:09:30.814Z,102245.72
2023-02-11T07:11:57.289Z,102231.19
2023-02-11T07:14:23.860Z,102248.94
2023-02-11T07:16:50.289Z,102242.09
2023-02-11T07:19:17.119Z,102253.41
2023-02-11T07:21:43.600Z,102263.91
2023-02-11T07:24:11.245Z,102274.03
2023-02-11T07:26:38.407Z,102280.53
2023-02-11T07:29:05.031Z,102281.31
2023-02-11T07:31:31.875Z,102274.06
2023-02-11T07:34:00.918Z,102286.97
2023-02-11T07:36:28.849Z,102286.16
2023-02-11T07:38:55.280Z,102291.06
2023-02-11T07:41:23.359Z,102289.41
2023-02-11T07:43:50.887Z,102293.03
2023-02-11T07:46:25.996Z,102286.16
2023-02-11T07:48:53.142Z,102297.84
2023-02-11T07:51:29.987Z,102286.06
2023-02-11T07:54:02.134Z,102276.38
2023-02-11T07:56:29.552Z,102298.25
2023-02-11T07:58:59.548Z,102286.13
2023-02-11T08:01:28.696Z,102304.31
2023-02-11T08:03:56.386Z,102303.88
2023-02-11T08:06:24.927Z,102305.09
2023-02-11T08:08:51.339Z,102307.94
2023-02-11T08:11:26.123Z,102307.94
2023-02-11T08:13:53.551Z,102304.78
2023-02-11T08:16:26.353Z,102333.03
2023-02-11T08:18:55.233Z,102333.03
2023-02-11T08:21:21.698Z,102333.03
2023-02-11T08:23:49.303Z,102338.28
2023-02-11T08:26:21.811Z,102334.59
2023-02-11T08:28:50.233Z,102329.75
2023-02-11T08:31:19.438Z,102324.84
2023-02-11T08:33:46.116Z,102334.19
2023-02-11T08:36:18.715Z,102332.19
2023-02-11T08:38:45.454Z,102313.66
2023-02-11T08:41:14.735Z,102349.13
2023-02-11T08:43:44.890Z,102345.09
2023-02-11T08:46:15.595Z,102353.66
2023-02-11T08:48:42.744Z,102361.28
2023-02-11T08:51:11.534Z,102373.53
2023-02-11T08:53:37.929Z,102377.91
2023-02-11T08:56:04.638Z,102369.81
2023-02-11T08:58:31.074Z,102382.75
2023-02-11T09:00:57.571Z,102360.88
2023-02-11T09:03:23.995Z,102366.88
2023-02-11T09:05:53.119Z,102365.69
2023-02-11T09:08:21.161Z,102383.50
2023-02-11T09:10:48.397Z,102381.44
2023-02-11T09:13:16.380Z,102382.25
2023-02-11T09:15:46.839Z,102390.75
2023-02-11T09:18:13.535Z,102377.41
2023-02-11T09:20:40.084Z,102385.44
2023-02-11T09:23:06.497Z,102387.91
2023-02-11T09:25:32.896Z,102385.06
2023-02-11T09:27:59.421Z,102385.41
2023-02-11T09:30:25.856Z,102387.81
2023-02-11T09:32:52.378Z,102392.25
2023-02-11T09:35:18.875Z,102387.78
2023-02-11T09:37:45.310Z,102386.53
2023-02-11T09:40:13.424Z,102365.88
2023-02-11T09:42:48.814Z,102383.66
2023-02-11T09:45:27.804Z,102398.28
2023-02-11T09:47:57.127Z,102408.81
2023-02-11T09:50:32.716Z,102399.03
2023-02-11T09:53:04.546Z,102407.16
2023-02-11T09:55:37.950Z,102405.50
2023-02-11T09:58:11.736Z,102410.75
2023-02-11T10:00:46.752Z,102414.41
2023-02-11T10:03:46.006Z,102411.19
2023-02-11T10:06:32.367Z,102409.16
2023-02-11T10:09:24.424Z,102400.63
2023-02-11T10:12:09.075Z,102403.81
2023-02-11T10:14:46.102Z,102406.22
2023-02-11T10:17:44.333Z,102407.03
2023-02-11T10:20:19.750Z,102425.28
2023-02-11T10:22:54.067Z,102430.56
2023-02-11T10:25:25.007Z,102437.81
2023-02-11T10:27:54.819Z,102435.00
2023-02-11T10:30:25.855Z,102434.56
2023-02-11T10:32:59.545Z,102424.81
2023-02-11T10:35:27.213Z,102423.97
2023-02-11T10:37:55.752Z,102415.09
2023-02-11T10:40:25.015Z,102411.78
2023-02-11T10:42:55.791Z,102417.03
2023-02-11T10:45:30.402Z,102415.03
2023-02-11T10:47:57.204Z,102412.56
2023-02-11T10:50:30.912Z,102412.88
2023-02-11T10:53:15.614Z,102419.81
2023-02-11T10:55:53.590Z,102419.38
2023-02-11T10:58:28.193Z,102425.44
2023-02-11T11:00:59.962Z,102422.19
2023-02-11T11:03:32.312Z,102419.88
2023-02-11T11:06:01.743Z,102423.81
2023-02-11T11:08:44.996Z,102448.16
2023-02-11T11:11:20.197Z,102446.56
2023-02-11T11:13:52.715Z,102440.81
2023-02-11T11:16:28.347Z,102434.72
2023-02-11T11:19:06.650Z,102421.28
2023-02-11T11:21:41.915Z,102430.19
2023-02-11T11:24:18.406Z,102428.59
2023-02-11T11:26:48.544Z,102433.84
2023-02-11T11:29:19.530Z,102437.50
2023-02-11T11:31:49.993Z,102426.91
2023-02-11T11:34:38.114Z,102442.34
2023-02-11T11:37:13.680Z,102445.66
2023-02-11T11:39:40.558Z,102450.50
2023-02-11T11:42:25.848Z,102448.41
2023-02-11T11:44:58.966Z,102448.41
2023-02-11T11:47:31.244Z,102456.91
2023-02-11T11:50:34.846Z,102458.94
2023-02-11T11:53:11.300Z,102461.34
2023-02-11T11:55:48.197Z,102456.09
2023-02-11T11:58:21.832Z,102462.53
2023-02-11T12:01:25.975Z,102470.72
2023-02-11T12:04:20.359Z,102456.09
2023-02-11T12:06:56.601Z,102451.16
2023-02-11T12:09:37.648Z,102448.31
2023-02-11T12:12:19.495Z,102439.75
2023-02-11T12:15:16.995Z,102450.31
2023-02-11T12:18:00.184Z,102446.22
2023-02-11T12:20:38.267Z,102447.06
2023-02-11T12:23:46.000Z,102447.84
2023-02-11T12:26:24.256Z,102435.66
2023-02-11T12:29:12.093Z,102435.63
2023-02-11T12:32:09.625Z,102440.50
2023-02-11T12:34:47.659Z,102441.78
2023-02-11T12:37:37.133Z,102440.91
2023-02-11T12:40:25.570Z,102431.13
2023-02-11T12:43:17.044Z,102441.28
2023-02-11T12:46:21.664Z,102443.34
2023-02-11T12:49:16.622Z,102441.28
2023-02-11T12:52:04.609Z,102452.59
2023-02-11T12:54:43.603Z,102454.66
2023-02-11T12:57:23.040Z,102446.91
2023-02-11T12:59:58.910Z,102458.69
2023-02-11T13:02:28.354Z,102461.91
2023-02-11T13:04:59.847Z,102454.22
2023-02-11T13:07:33.160Z,102453.38
2023-02-11T13:10:20.925Z,102463.97
2023-02-11T13:13:08.752Z,102471.19
2023-02-11T13:15:35.563Z,102444.34
2023-02-11T13:18:24.559Z,102445.16
2023-02-11T13:21:03.438Z,102430.63
2023-02-11T13:24:00.858Z,102441.09
2023-02-11T13:27:13.678Z,102454.53
2023-02-11T13:30:11.254Z,102452.16
2023-02-11T13:32:56.004Z,102452.47
2023-02-11T13:35:36.180Z,102447.16
2023-02-11T13:38:05.474Z,102435.41
2023-02-11T13:40:37.912Z,102439.81
2023-02-11T13:43:08.708Z,102438.59
2023-02-11T13:45:42.347Z,102440.19
2023-02-11T13:48:21.893Z,102446.69
2023-02-11T13:50:57.528Z,102446.25
2023-02-11T13:53:24.372Z,102445.81
2023-02-11T13:56:04.349Z,102456.34
2023-02-11T13:58:36.352Z,102460.03
2023-02-11T14:01:02.889Z,102468.13
2023-02-11T14:03:51.232Z,102470.53
2023-02-11T14:06:39.741Z,102454.69
2023-02-11T14:09:09.076Z,102464.84
2023-02-11T14:11:41.830Z,102483.53
2023-02-11T14:14:08.195Z,102479.47
2023-02-11T14:16:38.516Z,102467.69
2023-02-11T14:19:06.664Z,102474.19
2023-02-11T14:21:37.397Z,102487.56
2023-02-11T14:24:06.989Z,102480.63
2023-02-11T14:27:21.323Z,102492.06
2023-02-11T14:29:59.654Z,102498.53
2023-02-11T14:32:53.744Z,102506.66
2023-02-11T14:35:35.348Z,102502.97
2023-02-11T14:38:21.178Z,102498.16
2023-02-11T14:41:07.470Z,102505.81
2023-02-11T14:43:46.831Z,102504.97
2023-02-11T14:46:17.746Z,102513.06
2023-02-11T14:48:48.516Z,102522.03
2023-02-11T14:51:31.331Z,102526.88
2023-02-11T14:54:03.865Z,102515.91
2023-02-11T14:56:31.452Z,102525.25
2023-02-11T14:58:58.670Z,102528.13
2023-02-11T15:01:29.058Z,102542.69
2023-02-11T15:03:56.577Z,102554.88
2023-02-11T15:06:39.594Z,102552.09
2023-02-11T15:09:14.699Z,102563.41
2023-02-11T15:11:44.103Z,102561.78
2023-02-11T15:14:18.898Z,102559.28
2023-02-11T15:16:47.007Z,102553.66
2023-02-11T15:19:23.416Z,102562.56
2023-02-11T15:21:50.936Z,102557.69
2023-02-11T15:24:27.790Z,102575.16
2023-02-11T15:27:18.444Z,102573.09
2023-02-11T15:29:49.608Z,102582.56
2023-02-11T15:32:23.001Z,102582.91
2023-02-11T15:34:51.742Z,102582.50
2023-02-11T15:37:24.377Z,102591.81
2023-02-11T15:39:52.068Z,102594.25
2023-02-11T15:42:40.803Z,102594.25
2023-02-11T15:45:13.630Z,102597.09
2023-02-11T15:47:46.680Z,102597.88
2023-02-11T15:50:31.045Z,102584.56
2023-02-11T15:52:59.879Z,102595.53
2023-02-11T15:55:28.542Z,102598.75
2023-02-11T15:57:58.352Z,102606.06
2023-02-11T16:00:33.565Z,102606.84
2023-02-11T16:03:00.337Z,102613.75
2023-02-11T16:05:37.843Z,102605.63
2023-02-11T16:08:25.578Z,102612.56
2023-02-11T16:10:58.682Z,102616.59
2023-02-11T16:13:28.089Z,102622.66
2023-02-11T16:16:02.312Z,102619.81
2023-02-11T16:18:38.835Z,102628.38
2023-02-11T16:21:15.817Z,102630.03
2023-02-11T16:23:43.562Z,102614.13
2023-02-11T16:26:20.946Z,102612.13
2023-02-11T16:28:51.061Z,102616.59
2023-02-11T16:31:18.509Z,102619.44
2023-02-11T16:33:45.298Z,102623.53
2023-02-11T16:36:13.775Z,102637.28
2023-02-11T16:38:40.591Z,102647.06
2023-02-11T16:41:07.154Z,102647.94
2023-02-11T16:43:33.733Z,102662.91
2023-02-11T16:46:00.191Z,102665.75
2023-02-11T16:48:26.749Z,102651.16
2023-02-11T16:50:53.735Z,102667.38
2023-02-11T16:53:24.009Z,102661.69
2023-02-11T16:55:51.855Z,102658.13
2023-02-11T16:58:19.258Z,102670.66
2023-02-11T17:00:47.160Z,102677.16
2023-02-11T17:03:22.303Z,102677.97
2023-02-11T17:05:55.384Z,102693.41
2023-02-11T17:08:23.471Z,102695.88
2023-02-11T17:10:50.394Z,102695.88
2023-02-11T17:13:17.032Z,102682.91
2023-02-11T17:15:43.547Z,102706.84
2023-02-11T17:18:14.144Z,102706.84
2023-02-11T17:20:41.614Z,102719.03
2023-02-11T17:23:08.293Z,102717.00
2023-02-11T17:25:37.174Z,102730.00
2023-02-11T17:28:08.331Z,102734.91
2023-02-11T17:30:35.113Z,102730.84
2023-02-11T17:33:01.597Z,102727.97
2023-02-11T17:35:28.001Z,102712.97
2023-02-11T17:37:54.444Z,102719.50
2023-02-11T17:40:21.083Z,102724.31
2023-02-11T17:42:47.516Z,102732.44
2023-02-11T17:45:14.129Z,102731.63
2023-02-11T17:47:40.591Z,102740.19
2023-02-11T17:50:08.016Z,102740.97
2023-02-11T17:52:34.675Z,102743.06
2023-02-11T17:55:01.088Z,102732.53
2023-02-11T17:57:27.588Z,102736.91
2023-02-11T17:59:54.016Z,102736.91
2023-02-11T18:02:20.844Z,102730.44
2023-02-11T18:04:47.315Z,102729.25
2023-02-11T18:07:13.967Z,102742.22
2023-02-11T18:09:41.499Z,102763.34
2023-02-11T18:12:08.507Z,102755.22
2023-02-11T18:14:35.170Z,102766.59
2023-02-11T18:17:01.623Z,102758.50
2023-02-11T18:19:30.505Z,102758.06
2023-02-11T18:22:00.554Z,102761.31
2023-02-11T18:24:27.445Z,102765.00
2023-02-11T18:26:53.856Z,102788.19
2023-02-11T18:29:20.343Z,102776.78
2023-02-11T18:31:46.836Z,102785.34
2023-02-11T18:34:14.048Z,102775.63
2023-02-11T18:36:40.618Z,102782.09
2023-02-11T18:39:07.129Z,102791.03
2023-02-11T18:41:33.584Z,102791.03
2023-02-11T18:44:04.453Z,102789.41
2023-02-11T18:46:31.250Z,102794.72
2023-02-11T18:48:57.738Z,102795.09
2023-02-11T18:51:24.444Z,102793.50
2023-02-11T18:53:51.230Z,102804.06
2023-02-11T18:56:21.016Z,102809.75
2023-02-11T18:58:51.971Z,102820.31
2023-02-11T19:01:22.697Z,102812.22
2023-02-11T19:03:49.749Z,102821.16
2023-02-11T19:06:19.893Z,102819.50
2023-02-11T19:08:47.136Z,102813.03
2023-02-11T19:11:16.099Z,102826.84
2023-02-11T19:13:42.533Z,102810.59
2023-02-11T19:16:11.366Z,102818.72
2023-02-11T19:18:38.713Z,102810.59
2023-02-11T19:21:10.449Z,102816.66
2023-02-11T19:23:37.543Z,102812.59
2023-02-11T19:26:04.547Z,102815.44
2023-02-11T19:28:35.313Z,102819.50
2023-02-11T19:31:08.268Z,102823.22
2023-02-11T19:33:34.854Z,102827.28
2023-02-11T19:36:06.612Z,102825.22
2023-02-11T19:38:33.977Z,102828.84
2023-02-11T19:41:00.397Z,102822.00
2023-02-11T19:43:26.994Z,102830.13
2023-02-11T19:45:57.479Z,102846.78
2023-02-11T19:48:25.060Z,102845.19
2023-02-11T19:50:51.730Z,102852.91
2023-02-11T19:53:18.210Z,102848.00
2023-02-11T19:55:44.654Z,102850.44
2023-02-11T19:58:11.121Z,102834.22
2023-02-11T20:00:37.548Z,102839.88
2023-02-11T20:03:03.984Z,102845.16
2023-02-11T20:05:31.319Z,102839.84
2023-02-11T20:07:57.733Z,102851.22
2023-02-11T20:10:25.194Z,102850.06
2023-02-11T20:12:51.597Z,102855.31
2023-02-11T20:15:18.389Z,102852.47
2023-02-11T20:17:44.806Z,102861.03
2023-02-11T20:20:12.769Z,102848.84
2023-02-11T20:22:39.184Z,102863.47
2023-02-11T20:25:06.162Z,102862.63
2023-02-11T20:27:33.303Z,102865.09
2023-02-11T20:29:59.751Z,102863.94
2023-02-11T20:32:27.405Z,102870.00
2023-02-11T20:34:53.840Z,102880.56
2023-02-11T20:37:20.248Z,102880.13
2023-02-11T20:39:46.655Z,102872.41
2023-02-11T20:42:14.267Z,102870.84
2023-02-11T20:44:40.984Z,102876.09
2023-02-11T20:47:07.402Z,102885.03
2023-02-11T20:49:33.820Z,102879.34
2023-02-11T20:52:00.308Z,102883.03
2023-02-11T20:54:26.726Z,102883.03
2023-02-11T20:56:53.938Z,102893.16
2023-02-11T20:59:21.102Z,102882.19
2023-02-11T21:01:53.353Z,102883.41
2023-02-11T21:04:22.910Z,102891.09
2023-02-11T21:06:52.320Z,102884.66
2023-02-11T21:09:21.742Z,102879.78
2023-02-11T21:11:51.443Z,102883.03
2023-02-11T21:14:19.004Z,102906.59
2023-02-11T21:16:46.379Z,102911.50
2023-02-11T21:19:12.951Z,102913.53
2023-02-11T21:21:40.528Z,102914.31
2023-02-11T21:24:07.891Z,102915.56
2023-02-11T21:26:35.499Z,102920.44
2023-02-11T21:29:07.341Z,102923.28
2023-02-11T21:31:35.320Z,102919.69
2023-02-11T21:34:01.891Z,102931.03
2023-02-11T21:36:29.528Z,102939.16
2023-02-11T21:38:55.988Z,102942.47
2023-02-11T21:41:22.645Z,102935.94
2023-02-11T21:43:50.207Z,102943.22
2023-02-11T21:46:17.911Z,102941.63
2023-02-11T21:48:44.558Z,102946.50
2023-02-11T21:51:16.666Z,102947.31
2023-02-11T21:53:43.457Z,102936.78
2023-02-11T21:56:16.258Z,102960.31
2023-02-11T21:58:44.073Z,102953.44
2023-02-11T22:01:13.314Z,102953.88
2023-02-11T22:03:40.295Z,102956.28
2023-02-11T22:06:09.269Z,102975.81
2023-02-11T22:08:36.016Z,102972.97
2023-02-11T22:11:04.560Z,102979.88
2023-02-11T22:13:31.161Z,102969.72
2023-02-11T22:15:59.562Z,102978.25
2023-02-11T22:18:26.400Z,102980.72
2023-02-11T22:21:04.669Z,102973.38
2023-02-11T22:23:31.652Z,102981.94
2023-02-11T22:25:58.565Z,102989.63
2023-02-11T22:28:26.109Z,102984.78
2023-02-11T22:30:54.628Z,102978.31
2023-02-11T22:33:22.029Z,102995.34
2023-02-11T22:35:48.489Z,102993.75
2023-02-11T22:38:14.929Z,102990.47
2023-02-11T22:40:43.090Z,102994.53
2023-02-11T22:43:10.463Z,102996.97
2023-02-11T22:45:36.922Z,102999.81
2023-02-11T22:48:03.565Z,102996.97
2023-02-11T22:50:30.317Z,103011.22
2023-02-11T22:52:56.700Z,103008.78
2023-02-11T22:55:23.103Z,103010.81
2023-02-11T22:57:49.542Z,103012.47
2023-02-11T23:00:17.146Z,103018.53
2023-02-11T23:02:43.672Z,103028.31
2023-02-11T23:05:10.165Z,103022.22
2023-02-11T23:07:36.612Z,103018.97
2023-02-11T23:10:03.657Z,103035.63
2023-02-11T23:12:30.336Z,103044.19
2023-02-11T23:14:56.762Z,103036.84
2023-02-11T23:17:24.512Z,103031.19
2023-02-11T23:19:51.097Z,103034.41
2023-02-11T23:22:17.659Z,103033.19
2023-02-11T23:24:44.240Z,103020.22
2023-02-11T23:27:10.637Z,103034.44
2023-02-11T23:29:37.059Z,103034.44
2023-02-11T23:32:03.604Z,103049.88
2023-02-11T23:34:30.018Z,103037.69
2023-02-11T23:36:59.158Z,103036.84
2023-02-11T23:39:25.732Z,103047.03
2023-02-11T23:41:58.843Z,103051.09
2023-02-11T23:44:26.704Z,103042.56
2023-02-11T23:46:53.217Z,103045.84
2023-02-11T23:49:20.009Z,103058.03
2023-02-11T23:51:46.487Z,103056.00
2023-02-11T23:54:14.832Z,103067.78
2023-02-11T23:56:42.532Z,103060.47
2023-02-11T23:59:09.350Z,103060.84
